sensor_id;sensor_type;location;lat;lon;timestamp;P1;durP1;ratioP1;P2;durP2;ratioP2
56670;SDS011;42545;50.054;8.306;2023-02-28T00:00:25;3.30;;;1.98;;
56670;SDS011;42545;50.054;8.306;2023-02-28T00:02:52;3.10;;;2.20;;
56670;SDS011;42545;50.054;8.306;2023-02-28T00:05:20;2.28;;;2.05;;
56670;SDS011;42545;50.054;8.306;2023-02-28T00:07:52;4.00;;;2.50;;
56670;SDS011;42545;50.054;8.306;2023-02-28T00:10:19;3.38;;;2.42;;
56670;SDS011;42545;50.054;8.306;2023-02-28T00:12:49;2.95;;;2.10;;
56670;SDS011;42545;50.054;8.306;2023-02-28T00:15:17;3.73;;;2.20;;
56670;SDS011;42545;50.054;8.306;2023-02-28T00:17:45;3.50;;;2.40;;
56670;SDS011;42545;50.054;8.306;2023-02-28T00:20:12;4.35;;;2.00;;
56670;SDS011;42545;50.054;8.306;2023-02-28T00:22:41;3.22;;;2.28;;
56670;SDS011;42545;50.054;8.306;2023-02-28T00:25:09;3.05;;;2.15;;
56670;SDS011;42545;50.054;8.306;2023-02-28T00:27:37;3.05;;;2.17;;
56670;SDS011;42545;50.054;8.306;2023-02-28T00:30:08;2.75;;;2.10;;
56670;SDS011;42545;50.054;8.306;2023-02-28T00:32:36;4.45;;;2.97;;
56670;SDS011;42545;50.054;8.306;2023-02-28T00:35:04;2.42;;;2.00;;
56670;SDS011;42545;50.054;8.306;2023-02-28T00:37:31;4.45;;;2.22;;
56670;SDS011;42545;50.054;8.306;2023-02-28T00:39:59;2.55;;;1.83;;
56670;SDS011;42545;50.054;8.306;2023-02-28T00:42:25;4.38;;;2.47;;
56670;SDS011;42545;50.054;8.306;2023-02-28T00:44:52;2.60;;;2.25;;
56670;SDS011;42545;50.054;8.306;2023-02-28T00:47:20;4.95;;;2.53;;
56670;SDS011;42545;50.054;8.306;2023-02-28T00:49:47;3.38;;;2.47;;
56670;SDS011;42545;50.054;8.306;2023-02-28T00:52:14;2.67;;;2.33;;
56670;SDS011;42545;50.054;8.306;2023-02-28T00:54:41;4.45;;;2.28;;
56670;SDS011;42545;50.054;8.306;2023-02-28T00:57:08;3.38;;;2.35;;
56670;SDS011;42545;50.054;8.306;2023-02-28T00:59:35;3.00;;;2.45;;
56670;SDS011;42545;50.054;8.306;2023-02-28T01:02:01;3.45;;;2.60;;
56670;SDS011;42545;50.054;8.306;2023-02-28T01:04:29;3.75;;;2.70;;
56670;SDS011;42545;50.054;8.306;2023-02-28T01:06:56;6.07;;;2.88;;
56670;SDS011;42545;50.054;8.306;2023-02-28T01:09:23;5.55;;;3.03;;
56670;SDS011;42545;50.054;8.306;2023-02-28T01:11:49;4.22;;;2.60;;
56670;SDS011;42545;50.054;8.306;2023-02-28T01:14:17;4.32;;;2.67;;
56670;SDS011;42545;50.054;8.306;2023-02-28T01:16:44;3.83;;;2.42;;
56670;SDS011;42545;50.054;8.306;2023-02-28T01:19:10;4.53;;;3.00;;
56670;SDS011;42545;50.054;8.306;2023-02-28T01:21:39;2.55;;;2.35;;
56670;SDS011;42545;50.054;8.306;2023-02-28T01:24:06;5.30;;;2.95;;
56670;SDS011;42545;50.054;8.306;2023-02-28T01:26:33;5.28;;;3.30;;
56670;SDS011;42545;50.054;8.306;2023-02-28T01:29:00;4.32;;;2.95;;
56670;SDS011;42545;50.054;8.306;2023-02-28T01:31:27;4.93;;;3.25;;
56670;SDS011;42545;50.054;8.306;2023-02-28T01:33:54;5.07;;;3.40;;
56670;SDS011;42545;50.054;8.306;2023-02-28T01:36:23;4.20;;;3.20;;
56670;SDS011;42545;50.054;8.306;2023-02-28T01:38:52;5.40;;;3.58;;
56670;SDS011;42545;50.054;8.306;2023-02-28T01:41:20;5.47;;;3.40;;
56670;SDS011;42545;50.054;8.306;2023-02-28T01:43:54;4.35;;;3.55;;
56670;SDS011;42545;50.054;8.306;2023-02-28T01:46:22;6.38;;;3.80;;
56670;SDS011;42545;50.054;8.306;2023-02-28T01:48:50;4.72;;;3.38;;
56670;SDS011;42545;50.054;8.306;2023-02-28T01:53:50;5.18;;;3.40;;
56670;SDS011;42545;50.054;8.306;2023-02-28T01:56:22;5.90;;;3.70;;
56670;SDS011;42545;50.054;8.306;2023-02-28T01:58:52;4.60;;;3.28;;
56670;SDS011;42545;50.054;8.306;2023-02-28T02:01:20;5.35;;;3.30;;
56670;SDS011;42545;50.054;8.306;2023-02-28T02:03:48;5.20;;;3.38;;
56670;SDS011;42545;50.054;8.306;2023-02-28T02:06:20;4.50;;;3.47;;
56670;SDS011;42545;50.054;8.306;2023-02-28T02:08:47;5.00;;;3.47;;
56670;SDS011;42545;50.054;8.306;2023-02-28T02:11:15;4.50;;;3.10;;
56670;SDS011;42545;50.054;8.306;2023-02-28T02:13:59;4.20;;;3.13;;
56670;SDS011;42545;50.054;8.306;2023-02-28T02:16:41;6.05;;;3.63;;
56670;SDS011;42545;50.054;8.306;2023-02-28T02:19:28;3.70;;;2.60;;
56670;SDS011;42545;50.054;8.306;2023-02-28T02:22:16;4.93;;;3.00;;
56670;SDS011;42545;50.054;8.306;2023-02-28T02:25:04;3.80;;;2.60;;
56670;SDS011;42545;50.054;8.306;2023-02-28T02:27:51;4.40;;;3.00;;
56670;SDS011;42545;50.054;8.306;2023-02-28T02:34:13;4.60;;;2.67;;
56670;SDS011;42545;50.054;8.306;2023-02-28T02:36:53;3.50;;;2.42;;
56670;SDS011;42545;50.054;8.306;2023-02-28T02:39:32;3.25;;;2.75;;
56670;SDS011;42545;50.054;8.306;2023-02-28T02:42:08;3.72;;;2.55;;
56670;SDS011;42545;50.054;8.306;2023-02-28T02:44:42;3.45;;;3.10;;
56670;SDS011;42545;50.054;8.306;2023-02-28T02:47:14;3.63;;;3.05;;
56670;SDS011;42545;50.054;8.306;2023-02-28T02:49:45;3.70;;;2.95;;
56670;SDS011;42545;50.054;8.306;2023-02-28T02:52:15;3.90;;;3.10;;
56670;SDS011;42545;50.054;8.306;2023-02-28T02:54:47;4.68;;;2.60;;
56670;SDS011;42545;50.054;8.306;2023-02-28T02:57:19;3.08;;;2.58;;
56670;SDS011;42545;50.054;8.306;2023-02-28T02:59:49;4.18;;;2.88;;
56670;SDS011;42545;50.054;8.306;2023-02-28T03:04:50;2.63;;;2.33;;
56670;SDS011;42545;50.054;8.306;2023-02-28T03:07:19;4.28;;;2.50;;
56670;SDS011;42545;50.054;8.306;2023-02-28T03:09:50;4.07;;;2.70;;
56670;SDS011;42545;50.054;8.306;2023-02-28T03:12:18;3.20;;;2.45;;
56670;SDS011;42545;50.054;8.306;2023-02-28T03:14:48;4.80;;;2.65;;
56670;SDS011;42545;50.054;8.306;2023-02-28T03:17:45;4.30;;;2.40;;
56670;SDS011;42545;50.054;8.306;2023-02-28T03:20:26;3.83;;;2.60;;
56670;SDS011;42545;50.054;8.306;2023-02-28T03:23:03;5.78;;;2.85;;
56670;SDS011;42545;50.054;8.306;2023-02-28T03:25:41;3.83;;;2.75;;
56670;SDS011;42545;50.054;8.306;2023-02-28T03:28:21;3.25;;;2.78;;
56670;SDS011;42545;50.054;8.306;2023-02-28T03:30:57;4.05;;;3.17;;
56670;SDS011;42545;50.054;8.306;2023-02-28T03:33:30;3.67;;;2.65;;
56670;SDS011;42545;50.054;8.306;2023-02-28T03:36:04;4.32;;;2.50;;
56670;SDS011;42545;50.054;8.306;2023-02-28T03:38:41;3.88;;;2.92;;
56670;SDS011;42545;50.054;8.306;2023-02-28T03:41:13;3.25;;;2.47;;
56670;SDS011;42545;50.054;8.306;2023-02-28T03:43:44;4.63;;;2.90;;
56670;SDS011;42545;50.054;8.306;2023-02-28T03:46:18;3.78;;;2.63;;
56670;SDS011;42545;50.054;8.306;2023-02-28T03:48:49;5.28;;;3.30;;
56670;SDS011;42545;50.054;8.306;2023-02-28T03:51:21;3.95;;;2.88;;
56670;SDS011;42545;50.054;8.306;2023-02-28T03:53:50;3.15;;;2.50;;
56670;SDS011;42545;50.054;8.306;2023-02-28T03:56:20;3.53;;;2.60;;
56670;SDS011;42545;50.054;8.306;2023-02-28T03:58:53;3.67;;;2.47;;
56670;SDS011;42545;50.054;8.306;2023-02-28T04:01:23;4.68;;;2.90;;
56670;SDS011;42545;50.054;8.306;2023-02-28T04:03:56;3.63;;;2.30;;
56670;SDS011;42545;50.054;8.306;2023-02-28T04:06:24;3.92;;;2.60;;
56670;SDS011;42545;50.054;8.306;2023-02-28T04:08:53;5.60;;;2.78;;
56670;SDS011;42545;50.054;8.306;2023-02-28T04:11:21;3.83;;;2.80;;
56670;SDS011;42545;50.054;8.306;2023-02-28T04:13:50;4.03;;;2.60;;
56670;SDS011;42545;50.054;8.306;2023-02-28T04:16:17;4.80;;;2.97;;
56670;SDS011;42545;50.054;8.306;2023-02-28T04:18:44;4.03;;;2.60;;
56670;SDS011;42545;50.054;8.306;2023-02-28T04:21:11;3.95;;;2.63;;
56670;SDS011;42545;50.054;8.306;2023-02-28T04:23:40;4.25;;;2.80;;
56670;SDS011;42545;50.054;8.306;2023-02-28T04:26:06;3.60;;;2.53;;
56670;SDS011;42545;50.054;8.306;2023-02-28T04:28:33;3.22;;;2.53;;
56670;SDS011;42545;50.054;8.306;2023-02-28T04:31:01;3.42;;;2.40;;
56670;SDS011;42545;50.054;8.306;2023-02-28T04:33:29;5.25;;;2.72;;
56670;SDS011;42545;50.054;8.306;2023-02-28T04:36:00;3.10;;;2.25;;
56670;SDS011;42545;50.054;8.306;2023-02-28T04:38:28;2.92;;;2.30;;
56670;SDS011;42545;50.054;8.306;2023-02-28T04:40:58;3.42;;;2.35;;
56670;SDS011;42545;50.054;8.306;2023-02-28T04:43:25;6.68;;;2.55;;
56670;SDS011;42545;50.054;8.306;2023-02-28T04:45:52;3.03;;;2.20;;
56670;SDS011;42545;50.054;8.306;2023-02-28T04:48:21;3.00;;;2.28;;
56670;SDS011;42545;50.054;8.306;2023-02-28T04:50:48;4.32;;;2.42;;
56670;SDS011;42545;50.054;8.306;2023-02-28T04:53:15;4.50;;;2.60;;
56670;SDS011;42545;50.054;8.306;2023-02-28T04:55:42;4.20;;;1.95;;
56670;SDS011;42545;50.054;8.306;2023-02-28T04:58:10;3.75;;;2.25;;
56670;SDS011;42545;50.054;8.306;2023-02-28T05:00:37;3.30;;;2.58;;
56670;SDS011;42545;50.054;8.306;2023-02-28T05:03:04;4.80;;;2.45;;
56670;SDS011;42545;50.054;8.306;2023-02-28T05:05:31;3.20;;;2.08;;
56670;SDS011;42545;50.054;8.306;2023-02-28T05:07:57;3.28;;;2.03;;
56670;SDS011;42545;50.054;8.306;2023-02-28T05:10:24;3.50;;;2.33;;
56670;SDS011;42545;50.054;8.306;2023-02-28T05:12:51;2.70;;;2.10;;
56670;SDS011;42545;50.054;8.306;2023-02-28T05:15:19;3.97;;;2.40;;
56670;SDS011;42545;50.054;8.306;2023-02-28T05:17:46;3.22;;;2.20;;
56670;SDS011;42545;50.054;8.306;2023-02-28T05:20:12;4.18;;;2.15;;
56670;SDS011;42545;50.054;8.306;2023-02-28T05:22:39;3.45;;;2.20;;
56670;SDS011;42545;50.054;8.306;2023-02-28T05:25:08;3.97;;;2.08;;
56670;SDS011;42545;50.054;8.306;2023-02-28T05:27:37;2.65;;;2.22;;
56670;SDS011;42545;50.054;8.306;2023-02-28T05:30:05;5.32;;;2.58;;
56670;SDS011;42545;50.054;8.306;2023-02-28T05:32:36;3.65;;;2.17;;
56670;SDS011;42545;50.054;8.306;2023-02-28T05:35:03;3.03;;;2.03;;
56670;SDS011;42545;50.054;8.306;2023-02-28T05:37:31;3.13;;;2.25;;
56670;SDS011;42545;50.054;8.306;2023-02-28T05:39:58;3.65;;;2.20;;
56670;SDS011;42545;50.054;8.306;2023-02-28T05:42:25;2.83;;;2.10;;
56670;SDS011;42545;50.054;8.306;2023-02-28T05:44:51;4.68;;;2.40;;
56670;SDS011;42545;50.054;8.306;2023-02-28T05:47:18;4.90;;;2.10;;
56670;SDS011;42545;50.054;8.306;2023-02-28T05:49:46;8.13;;;2.85;;
56670;SDS011;42545;50.054;8.306;2023-02-28T05:52:12;2.92;;;2.30;;
56670;SDS011;42545;50.054;8.306;2023-02-28T05:54:40;2.95;;;2.05;;
56670;SDS011;42545;50.054;8.306;2023-02-28T05:57:06;6.88;;;2.85;;
56670;SDS011;42545;50.054;8.306;2023-02-28T05:59:33;4.57;;;2.20;;
56670;SDS011;42545;50.054;8.306;2023-02-28T06:02:04;5.95;;;2.58;;
56670;SDS011;42545;50.054;8.306;2023-02-28T06:04:32;2.55;;;1.95;;
56670;SDS011;42545;50.054;8.306;2023-02-28T06:07:00;4.40;;;2.30;;
56670;SDS011;42545;50.054;8.306;2023-02-28T06:09:28;3.03;;;2.10;;
56670;SDS011;42545;50.054;8.306;2023-02-28T06:11:56;3.17;;;1.90;;
56670;SDS011;42545;50.054;8.306;2023-02-28T06:14:25;7.13;;;2.25;;
56670;SDS011;42545;50.054;8.306;2023-02-28T06:16:52;2.75;;;2.13;;
56670;SDS011;42545;50.054;8.306;2023-02-28T06:19:19;2.65;;;1.85;;
56670;SDS011;42545;50.054;8.306;2023-02-28T06:21:49;4.05;;;2.28;;
56670;SDS011;42545;50.054;8.306;2023-02-28T06:24:18;5.38;;;2.63;;
56670;SDS011;42545;50.054;8.306;2023-02-28T06:26:45;6.22;;;2.42;;
56670;SDS011;42545;50.054;8.306;2023-02-28T06:29:12;6.85;;;2.40;;
56670;SDS011;42545;50.054;8.306;2023-02-28T06:31:43;3.30;;;2.05;;
56670;SDS011;42545;50.054;8.306;2023-02-28T06:34:10;3.45;;;2.30;;
56670;SDS011;42545;50.054;8.306;2023-02-28T06:36:37;2.92;;;2.20;;
56670;SDS011;42545;50.054;8.306;2023-02-28T06:39:05;3.42;;;2.40;;
56670;SDS011;42545;50.054;8.306;2023-02-28T06:41:34;4.53;;;2.50;;
56670;SDS011;42545;50.054;8.306;2023-02-28T06:44:03;3.95;;;2.20;;
56670;SDS011;42545;50.054;8.306;2023-02-28T06:46:31;3.75;;;2.20;;
56670;SDS011;42545;50.054;8.306;2023-02-28T06:48:58;3.22;;;1.98;;
56670;SDS011;42545;50.054;8.306;2023-02-28T06:51:25;3.33;;;2.20;;
56670;SDS011;42545;50.054;8.306;2023-02-28T06:53:52;3.25;;;2.35;;
56670;SDS011;42545;50.054;8.306;2023-02-28T06:56:19;3.30;;;2.00;;
56670;SDS011;42545;50.054;8.306;2023-02-28T06:58:49;3.25;;;2.28;;
56670;SDS011;42545;50.054;8.306;2023-02-28T07:01:17;3.55;;;1.67;;
56670;SDS011;42545;50.054;8.306;2023-02-28T07:03:47;4.97;;;2.40;;
56670;SDS011;42545;50.054;8.306;2023-02-28T07:06:17;3.40;;;1.85;;
56670;SDS011;42545;50.054;8.306;2023-02-28T07:08:44;3.15;;;1.88;;
56670;SDS011;42545;50.054;8.306;2023-02-28T07:11:11;2.67;;;1.80;;
56670;SDS011;42545;50.054;8.306;2023-02-28T07:13:38;3.38;;;1.90;;
56670;SDS011;42545;50.054;8.306;2023-02-28T07:16:09;3.70;;;2.20;;
56670;SDS011;42545;50.054;8.306;2023-02-28T07:18:37;2.40;;;2.03;;
56670;SDS011;42545;50.054;8.306;2023-02-28T07:21:05;3.60;;;2.38;;
56670;SDS011;42545;50.054;8.306;2023-02-28T07:23:33;3.75;;;2.25;;
56670;SDS011;42545;50.054;8.306;2023-02-28T07:26:00;2.92;;;2.25;;
56670;SDS011;42545;50.054;8.306;2023-02-28T07:28:27;3.50;;;2.22;;
56670;SDS011;42545;50.054;8.306;2023-02-28T07:30:54;3.38;;;2.20;;
56670;SDS011;42545;50.054;8.306;2023-02-28T07:33:22;3.95;;;2.60;;
56670;SDS011;42545;50.054;8.306;2023-02-28T07:35:49;3.15;;;2.20;;
56670;SDS011;42545;50.054;8.306;2023-02-28T07:38:16;3.38;;;2.05;;
56670;SDS011;42545;50.054;8.306;2023-02-28T07:40:43;3.92;;;2.33;;
56670;SDS011;42545;50.054;8.306;2023-02-28T07:43:09;6.13;;;3.03;;
56670;SDS011;42545;50.054;8.306;2023-02-28T07:45:36;3.85;;;2.40;;
56670;SDS011;42545;50.054;8.306;2023-02-28T07:48:02;3.95;;;2.47;;
56670;SDS011;42545;50.054;8.306;2023-02-28T07:50:31;3.63;;;2.50;;
56670;SDS011;42545;50.054;8.306;2023-02-28T07:52:57;5.57;;;2.85;;
56670;SDS011;42545;50.054;8.306;2023-02-28T07:55:24;4.47;;;2.53;;
56670;SDS011;42545;50.054;8.306;2023-02-28T07:57:51;4.20;;;2.35;;
56670;SDS011;42545;50.054;8.306;2023-02-28T08:00:18;3.10;;;2.25;;
56670;SDS011;42545;50.054;8.306;2023-02-28T08:02:44;3.50;;;2.55;;
56670;SDS011;42545;50.054;8.306;2023-02-28T08:05:11;3.55;;;2.30;;
56670;SDS011;42545;50.054;8.306;2023-02-28T08:07:39;4.13;;;2.75;;
56670;SDS011;42545;50.054;8.306;2023-02-28T08:10:06;3.90;;;2.58;;
56670;SDS011;42545;50.054;8.306;2023-02-28T08:12:35;3.03;;;2.33;;
56670;SDS011;42545;50.054;8.306;2023-02-28T08:15:01;3.50;;;2.55;;
56670;SDS011;42545;50.054;8.306;2023-02-28T08:17:28;3.03;;;2.30;;
56670;SDS011;42545;50.054;8.306;2023-02-28T08:19:55;4.15;;;2.75;;
56670;SDS011;42545;50.054;8.306;2023-02-28T08:22:22;5.60;;;3.13;;
56670;SDS011;42545;50.054;8.306;2023-02-28T08:24:50;4.18;;;2.70;;
56670;SDS011;42545;50.054;8.306;2023-02-28T08:27:17;4.68;;;2.53;;
56670;SDS011;42545;50.054;8.306;2023-02-28T08:29:44;4.47;;;2.88;;
56670;SDS011;42545;50.054;8.306;2023-02-28T08:32:10;3.42;;;2.45;;
56670;SDS011;42545;50.054;8.306;2023-02-28T08:34:38;4.10;;;2.50;;
56670;SDS011;42545;50.054;8.306;2023-02-28T08:37:06;4.72;;;2.90;;
56670;SDS011;42545;50.054;8.306;2023-02-28T08:39:33;6.70;;;3.05;;
56670;SDS011;42545;50.054;8.306;2023-02-28T08:42:02;5.82;;;2.85;;
56670;SDS011;42545;50.054;8.306;2023-02-28T08:44:29;4.68;;;2.78;;
56670;SDS011;42545;50.054;8.306;2023-02-28T08:46:56;4.00;;;2.80;;
56670;SDS011;42545;50.054;8.306;2023-02-28T08:49:22;4.50;;;2.80;;
56670;SDS011;42545;50.054;8.306;2023-02-28T08:51:49;5.70;;;3.10;;
56670;SDS011;42545;50.054;8.306;2023-02-28T08:54:15;8.20;;;3.10;;
56670;SDS011;42545;50.054;8.306;2023-02-28T08:56:44;5.25;;;3.00;;
56670;SDS011;42545;50.054;8.306;2023-02-28T08:59:20;5.53;;;3.20;;
56670;SDS011;42545;50.054;8.306;2023-02-28T09:01:47;8.52;;;3.70;;
56670;SDS011;42545;50.054;8.306;2023-02-28T09:04:14;5.95;;;3.10;;
56670;SDS011;42545;50.054;8.306;2023-02-28T09:06:41;4.30;;;2.97;;
56670;SDS011;42545;50.054;8.306;2023-02-28T09:09:10;6.93;;;3.35;;
56670;SDS011;42545;50.054;8.306;2023-02-28T09:11:37;5.63;;;3.22;;
56670;SDS011;42545;50.054;8.306;2023-02-28T09:14:04;6.03;;;3.25;;
56670;SDS011;42545;50.054;8.306;2023-02-28T09:16:37;4.55;;;3.28;;
56670;SDS011;42545;50.054;8.306;2023-02-28T09:19:03;5.63;;;3.45;;
56670;SDS011;42545;50.054;8.306;2023-02-28T09:21:30;5.57;;;3.35;;
56670;SDS011;42545;50.054;8.306;2023-02-28T09:23:57;5.18;;;3.20;;
56670;SDS011;42545;50.054;8.306;2023-02-28T09:26:24;4.80;;;3.40;;
56670;SDS011;42545;50.054;8.306;2023-02-28T09:28:53;4.15;;;3.30;;
56670;SDS011;42545;50.054;8.306;2023-02-28T09:31:21;6.47;;;3.55;;
56670;SDS011;42545;50.054;8.306;2023-02-28T09:33:53;5.10;;;3.03;;
56670;SDS011;42545;50.054;8.306;2023-02-28T09:36:20;5.27;;;3.07;;
56670;SDS011;42545;50.054;8.306;2023-02-28T09:38:48;4.93;;;3.00;;
56670;SDS011;42545;50.054;8.306;2023-02-28T09:41:17;5.50;;;2.75;;
56670;SDS011;42545;50.054;8.306;2023-02-28T09:43:47;6.00;;;3.40;;
56670;SDS011;42545;50.054;8.306;2023-02-28T09:46:21;7.38;;;3.30;;
56670;SDS011;42545;50.054;8.306;2023-02-28T09:48:56;5.25;;;3.10;;
56670;SDS011;42545;50.054;8.306;2023-02-28T09:51:28;6.72;;;3.53;;
56670;SDS011;42545;50.054;8.306;2023-02-28T09:54:01;4.35;;;3.13;;
56670;SDS011;42545;50.054;8.306;2023-02-28T09:56:30;5.57;;;3.35;;
56670;SDS011;42545;50.054;8.306;2023-02-28T09:59:02;6.72;;;3.58;;
56670;SDS011;42545;50.054;8.306;2023-02-28T10:01:37;4.15;;;3.38;;
56670;SDS011;42545;50.054;8.306;2023-02-28T10:04:12;5.88;;;3.25;;
56670;SDS011;42545;50.054;8.306;2023-02-28T10:06:50;7.15;;;3.58;;
56670;SDS011;42545;50.054;8.306;2023-02-28T10:09:18;3.53;;;3.00;;
56670;SDS011;42545;50.054;8.306;2023-02-28T10:11:49;4.97;;;2.92;;
56670;SDS011;42545;50.054;8.306;2023-02-28T10:14:18;5.55;;;3.17;;
56670;SDS011;42545;50.054;8.306;2023-02-28T10:16:48;4.07;;;3.10;;
56670;SDS011;42545;50.054;8.306;2023-02-28T10:19:22;6.30;;;3.53;;
56670;SDS011;42545;50.054;8.306;2023-02-28T10:21:55;6.55;;;3.35;;
56670;SDS011;42545;50.054;8.306;2023-02-28T10:24:26;4.95;;;3.45;;
56670;SDS011;42545;50.054;8.306;2023-02-28T10:26:58;4.95;;;3.30;;
56670;SDS011;42545;50.054;8.306;2023-02-28T10:29:27;4.45;;;3.67;;
56670;SDS011;42545;50.054;8.306;2023-02-28T10:31:58;6.32;;;4.00;;
56670;SDS011;42545;50.054;8.306;2023-02-28T10:34:30;5.25;;;3.47;;
56670;SDS011;42545;50.054;8.306;2023-02-28T10:36:57;3.70;;;3.28;;
56670;SDS011;42545;50.054;8.306;2023-02-28T10:39:37;8.55;;;3.72;;
56670;SDS011;42545;50.054;8.306;2023-02-28T10:42:18;5.05;;;3.25;;
56670;SDS011;42545;50.054;8.306;2023-02-28T10:44:53;4.28;;;2.92;;
56670;SDS011;42545;50.054;8.306;2023-02-28T10:47:31;4.30;;;3.00;;
56670;SDS011;42545;50.054;8.306;2023-02-28T10:50:03;4.90;;;3.25;;
56670;SDS011;42545;50.054;8.306;2023-02-28T10:52:33;5.90;;;3.20;;
56670;SDS011;42545;50.054;8.306;2023-02-28T10:55:18;4.82;;;3.15;;
56670;SDS011;42545;50.054;8.306;2023-02-28T10:57:48;5.13;;;2.95;;
56670;SDS011;42545;50.054;8.306;2023-02-28T11:00:16;5.63;;;3.92;;
56670;SDS011;42545;50.054;8.306;2023-02-28T11:02:47;5.55;;;3.50;;
56670;SDS011;42545;50.054;8.306;2023-02-28T11:05:28;7.45;;;3.63;;
56670;SDS011;42545;50.054;8.306;2023-02-28T11:07:57;4.85;;;3.33;;
56670;SDS011;42545;50.054;8.306;2023-02-28T11:10:31;6.38;;;3.92;;
56670;SDS011;42545;50.054;8.306;2023-02-28T11:13:00;8.07;;;3.58;;
56670;SDS011;42545;50.054;8.306;2023-02-28T11:15:27;5.40;;;3.22;;
56670;SDS011;42545;50.054;8.306;2023-02-28T11:17:56;8.02;;;4.13;;
56670;SDS011;42545;50.054;8.306;2023-02-28T11:20:26;6.20;;;4.10;;
56670;SDS011;42545;50.054;8.306;2023-02-28T11:22:57;8.88;;;3.75;;
56670;SDS011;42545;50.054;8.306;2023-02-28T11:25:28;6.63;;;4.20;;
56670;SDS011;42545;50.054;8.306;2023-02-28T11:27:57;8.30;;;4.53;;
56670;SDS011;42545;50.054;8.306;2023-02-28T11:30:28;5.17;;;4.37;;
56670;SDS011;42545;50.054;8.306;2023-02-28T11:35:24;7.05;;;4.03;;
56670;SDS011;42545;50.054;8.306;2023-02-28T11:37:58;5.65;;;3.75;;
56670;SDS011;42545;50.054;8.306;2023-02-28T11:40:28;5.80;;;3.80;;
56670;SDS011;42545;50.054;8.306;2023-02-28T11:43:05;4.93;;;3.85;;
56670;SDS011;42545;50.054;8.306;2023-02-28T11:45:43;6.28;;;4.10;;
56670;SDS011;42545;50.054;8.306;2023-02-28T11:48:17;5.93;;;4.10;;
56670;SDS011;42545;50.054;8.306;2023-02-28T11:51:00;5.80;;;4.00;;
56670;SDS011;42545;50.054;8.306;2023-02-28T11:53:44;7.35;;;4.25;;
56670;SDS011;42545;50.054;8.306;2023-02-28T11:56:23;5.60;;;3.80;;
56670;SDS011;42545;50.054;8.306;2023-02-28T11:59:00;4.78;;;3.63;;
56670;SDS011;42545;50.054;8.306;2023-02-28T12:01:44;5.40;;;3.17;;
56670;SDS011;42545;50.054;8.306;2023-02-28T12:04:25;5.38;;;3.83;;
56670;SDS011;42545;50.054;8.306;2023-02-28T12:07:00;6.25;;;4.20;;
56670;SDS011;42545;50.054;8.306;2023-02-28T12:09:39;7.78;;;4.70;;
56670;SDS011;42545;50.054;8.306;2023-02-28T12:12:14;8.60;;;4.18;;
56670;SDS011;42545;50.054;8.306;2023-02-28T12:14:53;6.70;;;4.07;;
56670;SDS011;42545;50.054;8.306;2023-02-28T12:17:32;11.48;;;4.00;;
56670;SDS011;42545;50.054;8.306;2023-02-28T12:20:13;5.82;;;3.67;;
56670;SDS011;42545;50.054;8.306;2023-02-28T12:22:49;6.22;;;4.18;;
56670;SDS011;42545;50.054;8.306;2023-02-28T12:25:39;5.03;;;3.70;;
56670;SDS011;42545;50.054;8.306;2023-02-28T12:28:17;4.73;;;4.13;;
56670;SDS011;42545;50.054;8.306;2023-02-28T12:30:49;5.00;;;3.90;;
56670;SDS011;42545;50.054;8.306;2023-02-28T12:33:20;7.07;;;4.40;;
56670;SDS011;42545;50.054;8.306;2023-02-28T12:35:52;8.73;;;4.30;;
56670;SDS011;42545;50.054;8.306;2023-02-28T12:38:22;6.55;;;4.97;;
56670;SDS011;42545;50.054;8.306;2023-02-28T12:40:53;6.20;;;4.25;;
56670;SDS011;42545;50.054;8.306;2023-02-28T12:43:24;5.95;;;4.53;;
56670;SDS011;42545;50.054;8.306;2023-02-28T12:45:58;8.05;;;4.55;;
56670;SDS011;42545;50.054;8.306;2023-02-28T12:48:30;12.95;;;5.45;;
56670;SDS011;42545;50.054;8.306;2023-02-28T12:51:04;5.85;;;4.82;;
56670;SDS011;42545;50.054;8.306;2023-02-28T12:53:35;7.07;;;4.47;;
56670;SDS011;42545;50.054;8.306;2023-02-28T12:56:19;8.73;;;5.40;;
56670;SDS011;42545;50.054;8.306;2023-02-28T12:58:51;9.27;;;4.88;;
56670;SDS011;42545;50.054;8.306;2023-02-28T13:01:29;6.95;;;4.72;;
56670;SDS011;42545;50.054;8.306;2023-02-28T13:07:24;6.00;;;4.78;;
56670;SDS011;42545;50.054;8.306;2023-02-28T13:10:12;7.15;;;5.35;;
56670;SDS011;42545;50.054;8.306;2023-02-28T13:12:48;8.50;;;4.93;;
56670;SDS011;42545;50.054;8.306;2023-02-28T13:15:19;7.60;;;4.95;;
56670;SDS011;42545;50.054;8.306;2023-02-28T13:17:50;7.63;;;4.90;;
56670;SDS011;42545;50.054;8.306;2023-02-28T13:20:18;11.70;;;5.43;;
56670;SDS011;42545;50.054;8.306;2023-02-28T13:22:48;18.52;;;5.30;;
56670;SDS011;42545;50.054;8.306;2023-02-28T13:31:28;8.45;;;4.45;;
56670;SDS011;42545;50.054;8.306;2023-02-28T13:34:04;6.35;;;4.85;;
56670;SDS011;42545;50.054;8.306;2023-02-28T13:36:38;8.07;;;5.25;;
56670;SDS011;42545;50.054;8.306;2023-02-28T13:39:44;7.97;;;4.65;;
56670;SDS011;42545;50.054;8.306;2023-02-28T13:42:32;6.55;;;5.00;;
56670;SDS011;42545;50.054;8.306;2023-02-28T13:47:52;11.25;;;5.07;;
56670;SDS011;42545;50.054;8.306;2023-02-28T13:50:23;8.55;;;5.00;;
56670;SDS011;42545;50.054;8.306;2023-02-28T13:53:16;6.90;;;4.53;;
56670;SDS011;42545;50.054;8.306;2023-02-28T13:56:05;6.40;;;4.72;;
56670;SDS011;42545;50.054;8.306;2023-02-28T13:58:46;6.93;;;4.47;;
56670;SDS011;42545;50.054;8.306;2023-02-28T14:01:32;7.40;;;4.88;;
56670;SDS011;42545;50.054;8.306;2023-02-28T14:04:37;6.32;;;4.85;;
56670;SDS011;42545;50.054;8.306;2023-02-28T14:07:17;7.05;;;4.32;;
56670;SDS011;42545;50.054;8.306;2023-02-28T14:09:46;7.72;;;5.07;;
56670;SDS011;42545;50.054;8.306;2023-02-28T14:15:26;15.27;;;5.43;;
56670;SDS011;42545;50.054;8.306;2023-02-28T14:18:14;10.98;;;5.30;;
56670;SDS011;42545;50.054;8.306;2023-02-28T14:20:47;10.70;;;5.15;;
56670;SDS011;42545;50.054;8.306;2023-02-28T14:23:16;6.32;;;4.50;;
56670;SDS011;42545;50.054;8.306;2023-02-28T14:25:52;8.27;;;4.50;;
56670;SDS011;42545;50.054;8.306;2023-02-28T14:28:35;8.48;;;4.97;;
56670;SDS011;42545;50.054;8.306;2023-02-28T14:31:17;7.82;;;5.10;;
56670;SDS011;42545;50.054;8.306;2023-02-28T14:34:13;8.05;;;4.85;;
56670;SDS011;42545;50.054;8.306;2023-02-28T14:36:52;7.78;;;4.50;;
56670;SDS011;42545;50.054;8.306;2023-02-28T14:39:20;7.38;;;4.50;;
56670;SDS011;42545;50.054;8.306;2023-02-28T14:41:50;7.57;;;5.07;;
56670;SDS011;42545;50.054;8.306;2023-02-28T14:44:19;7.68;;;4.57;;
56670;SDS011;42545;50.054;8.306;2023-02-28T14:46:48;8.73;;;4.67;;
56670;SDS011;42545;50.054;8.306;2023-02-28T14:49:18;9.30;;;5.07;;
56670;SDS011;42545;50.054;8.306;2023-02-28T14:51:48;6.43;;;4.85;;
56670;SDS011;42545;50.054;8.306;2023-02-28T14:54:19;8.77;;;5.22;;
56670;SDS011;42545;50.054;8.306;2023-02-28T14:56:49;9.57;;;5.03;;
56670;SDS011;42545;50.054;8.306;2023-02-28T14:59:23;8.68;;;4.40;;
56670;SDS011;42545;50.054;8.306;2023-02-28T15:01:52;8.65;;;4.78;;
56670;SDS011;42545;50.054;8.306;2023-02-28T15:04:33;7.45;;;4.95;;
56670;SDS011;42545;50.054;8.306;2023-02-28T15:07:09;7.47;;;5.15;;
56670;SDS011;42545;50.054;8.306;2023-02-28T15:09:38;8.00;;;4.82;;
56670;SDS011;42545;50.054;8.306;2023-02-28T15:12:05;6.75;;;5.03;;
56670;SDS011;42545;50.054;8.306;2023-02-28T15:14:32;9.95;;;4.85;;
56670;SDS011;42545;50.054;8.306;2023-02-28T15:17:05;8.10;;;5.22;;
56670;SDS011;42545;50.054;8.306;2023-02-28T15:19:36;6.72;;;5.00;;
56670;SDS011;42545;50.054;8.306;2023-02-28T15:22:08;9.75;;;5.47;;
56670;SDS011;42545;50.054;8.306;2023-02-28T15:24:41;11.07;;;5.45;;
56670;SDS011;42545;50.054;8.306;2023-02-28T15:27:15;8.85;;;4.90;;
56670;SDS011;42545;50.054;8.306;2023-02-28T15:29:46;7.85;;;5.35;;
56670;SDS011;42545;50.054;8.306;2023-02-28T15:32:21;7.30;;;5.07;;
56670;SDS011;42545;50.054;8.306;2023-02-28T15:34:51;7.38;;;4.68;;
56670;SDS011;42545;50.054;8.306;2023-02-28T15:37:27;6.65;;;4.45;;